Susquehanna — WDD9976 — position and weather

sailwx.info

Track history (hours):
 
Tides and Currents Weather Stations Pressure Air Temp Water Temp Dewpoint Dewpoint Depression Visibility Wind Speed Wind Dir Waves Ship Positions

Susquehanna

Owner: Vane Line Bunkering, Inc., Baltimore, MD. More information available from US FCC via Universal Licensing System and Coast Guard Vessel Documentation Center.

Last reported at 2017-Jan-20 19:34 UTC. Time now 2017-Jan-20 20:16 UTC.
Position N 39°53' W 075°12'.

Length 28 m; draft 4.2 m.

Type: Tug. MMSI: 367318750.

Date/timePositionNaut miles runAvg speedWind from/ knotsBaromVisibWave heightAir tempDewpointWater temp
2017-Jan-20 19:34N 39°53' W 075°12'0 0.0
2017-Jan-20 18:33N 39°53' W 075°12'1 0.6
2017-Jan-20 17:33N 39°54' W 075°12'0 0.0
2017-Jan-20 16:34N 39°54' W 075°12'0 0.1
2017-Jan-20 15:34N 39°54' W 075°12'0 0.0
2017-Jan-20 14:34N 39°54' W 075°12'0 0.0
2017-Jan-20 13:34N 39°54' W 075°12'0 0.1
2017-Jan-20 12:34N 39°54' W 075°12'0 0.0
2017-Jan-20 11:33N 39°54' W 075°12'0 0.0
2017-Jan-20 10:34N 39°54' W 075°12'0 0.0
2017-Jan-20 09:34N 39°54' W 075°12'3 3.3
2017-Jan-20 08:34N 39°51' W 075°15'3 3.5
2017-Jan-20 07:34N 39°53' W 075°12'4 4.2
2017-Jan-20 06:33N 39°57' W 075°08'3 3.5
2017-Jan-20 05:34N 39°59' W 075°05'0 0.2
2017-Jan-20 04:34N 39°59' W 075°05'0 0.0
2017-Jan-20 03:33N 39°59' W 075°05'3 2.8
2017-Jan-20 02:33N 39°57' W 075°08'5 5.0
2017-Jan-20 01:34N 39°54' W 075°12'0 0.1
2017-Jan-20 00:34N 39°54' W 075°12'0 0.0
2017-Jan-19 23:22N 39°54' W 075°12'0 0.0
2017-Jan-19 22:32N 39°54' W 075°12'0 0.0
2017-Jan-19 21:30N 39°54' W 075°12'1 1.1
2017-Jan-19 20:33N 39°53' W 075°12'4 3.4
2017-Jan-19 19:31N 39°51' W 075°16'3 3.0
2017-Jan-19 18:31N 39°52' W 075°12'0 0.0
2017-Jan-19 17:32N 39°52' W 075°12'0 0.0
2017-Jan-19 16:33N 39°52' W 075°12'0 0.0
2017-Jan-19 15:33N 39°52' W 075°12'0 0.0
2017-Jan-19 14:32N 39°52' W 075°12'0 0.0
2017-Jan-19 13:30N 39°52' W 075°12'0 0.2
2017-Jan-19 12:33N 39°52' W 075°12'0 0.0
2017-Jan-19 11:31N 39°52' W 075°12'0 0.0
2017-Jan-19 10:32N 39°52' W 075°12'0 0.0
2017-Jan-19 09:32N 39°52' W 075°12'0 0.0
2017-Jan-19 08:33N 39°52' W 075°12'0 0.0
2017-Jan-19 07:34N 39°52' W 075°12'0 0.0
2017-Jan-19 06:28N 39°52' W 075°12'0 0.2
2017-Jan-19 05:32N 39°52' W 075°12'0 0.0
2017-Jan-19 04:33N 39°52' W 075°12'0 0.0
2017-Jan-19 03:33N 39°52' W 075°12'0 0.0
2017-Jan-19 02:31N 39°52' W 075°12'0 0.0
2017-Jan-19 01:32N 39°52' W 075°12'0 0.0
2017-Jan-19 00:32N 39°52' W 075°12'0 0.2
2017-Jan-18 23:33N 39°52' W 075°12'0 0.0
2017-Jan-18 22:34N 39°52' W 075°12'0 0.0
2017-Jan-18 21:31N 39°52' W 075°12'0 0.0
2017-Jan-18 20:32N 39°52' W 075°12'0 0.0
2017-Jan-18 19:33N 39°52' W 075°12'0 0.0
2017-Jan-18 18:33N 39°52' W 075°12'0 0.2
2017-Jan-18 17:31N 39°52' W 075°12'0 0.0
2017-Jan-18 16:32N 39°52' W 075°12'0 0.0
2017-Jan-18 15:34N 39°52' W 075°12'0 0.0
2017-Jan-18 14:33N 39°52' W 075°12'1 0.9
2017-Jan-18 13:33N 39°53' W 075°12'1 0.9
2017-Jan-18 12:32N 39°52' W 075°12'0 0.2
2017-Jan-18 11:33N 39°52' W 075°12'0 0.0
2017-Jan-18 10:34N 39°52' W 075°12'0 0.0
2017-Jan-18 09:31N 39°52' W 075°12'0 0.0
2017-Jan-18 08:32N 39°52' W 075°12'0 0.0
2017-Jan-18 07:33N 39°52' W 075°12'0 0.0
2017-Jan-18 06:33N 39°52' W 075°12'0 0.2
2017-Jan-18 05:31N 39°52' W 075°12'0 0.0
2017-Jan-18 04:32N 39°52' W 075°12'0 0.0
2017-Jan-18 03:32N 39°52' W 075°12'0 0.0
2017-Jan-18 02:33N 39°52' W 075°12'0 0.0
2017-Jan-18 01:31N 39°52' W 075°12'0 0.0
2017-Jan-18 00:31N 39°52' W 075°12'0 0.0
2017-Jan-17 23:32N 39°52' W 075°12'5 5.1
2017-Jan-17 22:34N 39°51' W 075°19'5 4.7
2017-Jan-17 21:34N 39°49' W 075°24'0 0.0
2017-Jan-17 20:34N 39°49' W 075°24'0 0.0
2017-Jan-17 19:34N 39°49' W 075°24'0 0.0
2017-Jan-17 18:34N 39°49' W 075°24'0 0.4
2017-Jan-17 17:34N 39°48' W 075°24'3 2.6
2017-Jan-17 16:34N 39°50' W 075°22'8 8.4
2017-Jan-17 15:33N 39°54' W 075°12'1 1.3
2017-Jan-17 14:32N 39°55' W 075°13'0 0.0
2017-Jan-17 13:33N 39°55' W 075°13'0 0.0
2017-Jan-17 12:34N 39°55' W 075°13'0 0.0
2017-Jan-17 11:31N 39°55' W 075°13'0 0.0
2017-Jan-17 10:32N 39°55' W 075°13'1 1.2
2017-Jan-17 09:33N 39°54' W 075°12'4 4.1
2017-Jan-17 08:33N 39°51' W 075°16'6 6.0
2017-Jan-17 07:33N 39°49' W 075°24'0 0.0
2017-Jan-17 06:33N 39°49' W 075°23'1 0.6
2017-Jan-17 05:33N 39°49' W 075°24'6 5.7
2017-Jan-17 04:33N 39°51' W 075°17'5 4.6
2017-Jan-17 03:33N 39°54' W 075°12'0 0.1
2017-Jan-17 02:07N 39°54' W 075°12'0 0.0
2017-Jan-17 01:16N 39°54' W 075°12'2 2.7
2017-Jan-17 00:34N 39°52' W 075°13'7 6.8
2017-Jan-16 23:33N 39°50' W 075°22'2 1.6
2017-Jan-16 22:33N 39°49' W 075°23'3 3.0
2017-Jan-16 21:33N 39°51' W 075°21'0 0.3
2017-Jan-16 20:33N 39°51' W 075°20'7 6.9
2017-Jan-16 19:33N 39°54' W 075°12'0 0.5
2017-Jan-16 18:33N 39°54' W 075°12'0 0.1
2017-Jan-16 17:33N 39°54' W 075°12'0 0.0
2017-Jan-16 16:31N 39°54' W 075°12'1 1.3
2017-Jan-16 15:33N 39°53' W 075°11'0 0.5
2017-Jan-16 14:33N 39°53' W 075°12'3 3.3
2017-Jan-16 13:33N 39°51' W 075°15'4 4.1
2017-Jan-16 12:33N 39°51' W 075°21'5 5.3
2017-Jan-16 11:33N 39°51' W 075°14'0 0.0
2017-Jan-16 10:33N 39°51' W 075°14'0 0.1
2017-Jan-16 09:33N 39°51' W 075°14'0 0.0
2017-Jan-16 08:33N 39°51' W 075°14'0 0.0
2017-Jan-16 07:33N 39°51' W 075°14'0 0.0
2017-Jan-16 06:33N 39°51' W 075°14'0 0.0
2017-Jan-16 05:33N 39°51' W 075°14'0 0.1
2017-Jan-16 04:33N 39°51' W 075°14'0 0.1
2017-Jan-16 03:33N 39°51' W 075°14'6 6.2
2017-Jan-16 02:33N 39°56' W 075°08'1 0.7
2017-Jan-16 01:33N 39°57' W 075°08'0 0.0
2017-Jan-16 00:33N 39°57' W 075°08'0 0.0
2017-Jan-15 23:33N 39°57' W 075°08'3 2.6
2017-Jan-15 22:33N 39°54' W 075°08'0 0.4
2017-Jan-15 21:31N 39°54' W 075°08'4 4.1
2017-Jan-15 20:33N 39°52' W 075°13'2 1.7
2017-Jan-15 19:31N 39°53' W 075°12'0 0.0
2017-Jan-15 18:32N 39°53' W 075°12'0 0.0
2017-Jan-15 17:33N 39°53' W 075°12'3 2.7
2017-Jan-15 16:33N 39°54' W 075°08'3 3.1
2017-Jan-15 15:31N 39°54' W 075°12'0 0.0
2017-Jan-15 14:31N 39°54' W 075°12'3 3.4
2017-Jan-15 13:33N 39°54' W 075°08'3 2.9
2017-Jan-15 12:34N 39°53' W 075°12'1 0.8
2017-Jan-15 11:31N 39°54' W 075°12'0 0.0
2017-Jan-15 10:32N 39°54' W 075°12'0 0.0
2017-Jan-15 09:33N 39°54' W 075°12'0 0.0
2017-Jan-15 08:33N 39°54' W 075°12'0 0.0
2017-Jan-15 07:31N 39°54' W 075°12'0 0.0
2017-Jan-15 06:29N 39°54' W 075°12'0 0.0
2017-Jan-15 05:32N 39°54' W 075°12'0 0.0
2017-Jan-15 04:30N 39°54' W 075°12'0 0.0
2017-Jan-15 03:31N 39°54' W 075°12'0 0.0
2017-Jan-15 02:31N 39°54' W 075°12'0 0.0
2017-Jan-15 01:32N 39°54' W 075°12'0 0.0
2017-Jan-15 00:33N 39°54' W 075°12'0 0.0
2017-Jan-14 23:33N 39°54' W 075°12'0 0.0
2017-Jan-14 22:33N 39°54' W 075°12'2 2.1
2017-Jan-14 21:33N 39°52' W 075°14'2 2.1
2017-Jan-14 20:32N 39°54' W 075°12'0 0.0
2017-Jan-14 19:32N 39°54' W 075°12'0 0.0
2017-Jan-14 18:33N 39°54' W 075°12'0 0.0
2017-Jan-14 17:34N 39°54' W 075°12'0 0.3
2017-Jan-14 16:33N 39°54' W 075°12'1 0.6
2017-Jan-14 15:33N 39°53' W 075°12'1 0.8
2017-Jan-14 14:32N 39°54' W 075°12'0 0.0
2017-Jan-14 13:33N 39°54' W 075°12'0 0.0
2017-Jan-14 12:31N 39°54' W 075°12'0 0.0
2017-Jan-14 11:32N 39°54' W 075°12'0 0.0
2017-Jan-14 10:32N 39°54' W 075°12'0 0.0
2017-Jan-14 09:33N 39°54' W 075°12'0 0.0
2017-Jan-14 08:34N 39°54' W 075°12'0 0.0
2017-Jan-14 07:28N 39°54' W 075°12'0 0.0
2017-Jan-14 06:32N 39°54' W 075°12'0 0.0
2017-Jan-14 05:33N 39°54' W 075°12'0 0.0
2017-Jan-14 04:33N 39°54' W 075°12'0 0.0
2017-Jan-14 03:31N 39°54' W 075°12'1 0.2
2017-Jan-13 23:34N 39°54' W 075°12'2 1.4
2017-Jan-13 22:29N 39°55' W 075°13'0 0.0
2017-Jan-13 21:31N 39°55' W 075°13'0 0.0
2017-Jan-13 20:31N 39°55' W 075°13'0 0.0
2017-Jan-13 19:32N 39°55' W 075°13'0 0.0
2017-Jan-13 18:33N 39°55' W 075°13'0 0.0
2017-Jan-13 17:33N 39°55' W 075°13'0 0.0
2017-Jan-13 16:31N 39°55' W 075°13'0 0.0
2017-Jan-13 15:32N 39°55' W 075°13'2 1.6
2017-Jan-13 14:33N 39°54' W 075°12'1 0.7
2017-Jan-13 13:33N 39°54' W 075°12'0 0.0
2017-Jan-13 12:31N 39°54' W 075°12'0 0.0
2017-Jan-13 11:32N 39°54' W 075°12'0 0.0
2017-Jan-13 10:32N 39°54' W 075°12'0 0.0
2017-Jan-13 09:33N 39°54' W 075°12'0 0.0
2017-Jan-13 08:31N 39°54' W 075°12'0 0.0
2017-Jan-13 07:31N 39°54' W 075°12'0 0.0
2017-Jan-13 06:32N 39°54' W 075°12'0 0.0
2017-Jan-13 05:33N 39°54' W 075°12'0 0.0
2017-Jan-13 04:33N 39°54' W 075°12'0 0.0
2017-Jan-13 03:31N 39°54' W 075°12'0 0.0
2017-Jan-13 02:32N 39°54' W 075°12'0 0.0
2017-Jan-13 01:32N 39°54' W 075°12'0 0.0
2017-Jan-13 00:33N 39°54' W 075°12'0 0.0
2017-Jan-12 23:32N 39°54' W 075°12'0 0.0
2017-Jan-12 22:33N 39°54' W 075°12'1 0.7
2017-Jan-12 21:33N 39°53' W 075°12'1 0.7
2017-Jan-12 20:31N 39°54' W 075°12'0 0.0
2017-Jan-12 19:31N 39°54' W 075°12'0 0.0
2017-Jan-12 18:32N 39°54' W 075°12'0 0.0
2017-Jan-12 17:33N 39°54' W 075°12'0 0.4
2017-Jan-12 16:32N 39°54' W 075°12'0 0.4
2017-Jan-12 15:33N 39°54' W 075°12'0 0.0
2017-Jan-12 14:33N 39°54' W 075°12'0 0.0
2017-Jan-12 13:31N 39°54' W 075°12'2 2.1
2017-Jan-12 12:33N 39°52' W 075°14'7 7.3
2017-Jan-12 11:33N 39°50' W 075°23'6 6.0
2017-Jan-12 10:33N 39°46' W 075°29'3 3.3
2017-Jan-12 09:33N 39°43' W 075°31'0 0.0
2017-Jan-12 08:31N 39°43' W 075°31'0 0.0
2017-Jan-12 07:32N 39°43' W 075°31'0 0.0
2017-Jan-12 06:32N 39°43' W 075°31'0 0.0
2017-Jan-12 05:33N 39°43' W 075°31'0 0.0
2017-Jan-12 04:34N 39°43' W 075°31'1 1.4
2017-Jan-12 03:33N 39°44' W 075°30'8 8.2
2017-Jan-12 02:34N 39°50' W 075°22'8 7.5
2017-Jan-12 01:34N 39°52' W 075°13'8 7.8
2017-Jan-12 00:34N 39°58' W 075°07'2 1.9
2017-Jan-11 23:32N 39°59' W 075°04'0 0.0
2017-Jan-11 22:33N 39°59' W 075°04'0 0.0
2017-Jan-11 21:31N 39°59' W 075°04'4 4.7
2017-Jan-11 20:34N 39°55' W 075°08'4 3.6
2017-Jan-11 19:32N 39°54' W 075°12'0 0.1
2017-Jan-11 18:33N 39°54' W 075°12'0 0.0
2017-Jan-11 17:31N 39°54' W 075°12'0 0.0
2017-Jan-11 16:32N 39°54' W 075°12'0 0.0
2017-Jan-11 15:32N 39°54' W 075°12'0 0.0
2017-Jan-11 14:33N 39°54' W 075°12'0 0.0
2017-Jan-11 13:31N 39°54' W 075°12'2 2.4
2017-Jan-11 12:34N 39°53' W 075°10'0 0.2
2017-Jan-11 11:34N 39°53' W 075°09'2 2.1
2017-Jan-11 10:33N 39°54' W 075°12'0 0.3
2017-Jan-11 09:32N 39°54' W 075°12'0 0.0
2017-Jan-11 08:33N 39°54' W 075°12'0 0.0
2017-Jan-11 07:31N 39°54' W 075°12'0 0.0
2017-Jan-11 06:34N 39°54' W 075°12'1 0.6
2017-Jan-11 05:33N 39°53' W 075°12'8 7.9
2017-Jan-11 04:34N 39°50' W 075°21'0 0.5
2017-Jan-11 03:31N 39°50' W 075°22'0 0.0
2017-Jan-11 02:32N 39°50' W 075°22'0 0.2
2017-Jan-11 01:28N 39°50' W 075°22'0 0.0
2017-Jan-11 00:33N 39°50' W 075°22'6 6.1
2017-Jan-10 23:33N 39°52' W 075°14'5 4.6
2017-Jan-10 22:33N 39°53' W 075°08'6 6.0
2017-Jan-10 21:31N 39°59' W 075°04'6 6.2
2017-Jan-10 20:34N 39°54' W 075°08'  
Track history (hours):
 
Tides and Currents Weather Stations Pressure Air Temp Water Temp Dewpoint Dewpoint Depression Visibility Wind Speed Wind Dir Waves Ship Positions

Susquehanna

Owner: Vane Line Bunkering, Inc., Baltimore, MD. More information available from US FCC via Universal Licensing System and Coast Guard Vessel Documentation Center.

Last reported at 2017-Jan-20 19:34 UTC. Time now 2017-Jan-20 20:16 UTC.
Position N 39°53' W 075°12'.

Length 28 m; draft 4.2 m.

Type: Tug. MMSI: 367318750.

Date/timePositionNaut miles runAvg speedWind from/ knotsBaromVisibWave heightAir tempDewpointWater temp
2017-Jan-20 19:34N 39°53' W 075°12'0 0.0
2017-Jan-20 18:33N 39°53' W 075°12'1 0.6
2017-Jan-20 17:33N 39°54' W 075°12'0 0.0
2017-Jan-20 16:34N 39°54' W 075°12'0 0.1
2017-Jan-20 15:34N 39°54' W 075°12'0 0.0
2017-Jan-20 14:34N 39°54' W 075°12'0 0.0
2017-Jan-20 13:34N 39°54' W 075°12'0 0.1
2017-Jan-20 12:34N 39°54' W 075°12'0 0.0
2017-Jan-20 11:33N 39°54' W 075°12'0 0.0
2017-Jan-20 10:34N 39°54' W 075°12'0 0.0
2017-Jan-20 09:34N 39°54' W 075°12'3 3.3
2017-Jan-20 08:34N 39°51' W 075°15'3 3.5
2017-Jan-20 07:34N 39°53' W 075°12'4 4.2
2017-Jan-20 06:33N 39°57' W 075°08'3 3.5
2017-Jan-20 05:34N 39°59' W 075°05'0 0.2
2017-Jan-20 04:34N 39°59' W 075°05'0 0.0
2017-Jan-20 03:33N 39°59' W 075°05'3 2.8
2017-Jan-20 02:33N 39°57' W 075°08'5 5.0
2017-Jan-20 01:34N 39°54' W 075°12'0 0.1
2017-Jan-20 00:34N 39°54' W 075°12'0 0.0
2017-Jan-19 23:22N 39°54' W 075°12'0 0.0
2017-Jan-19 22:32N 39°54' W 075°12'0 0.0
2017-Jan-19 21:30N 39°54' W 075°12'1 1.1
2017-Jan-19 20:33N 39°53' W 075°12'4 3.4
2017-Jan-19 19:31N 39°51' W 075°16'3 3.0
2017-Jan-19 18:31N 39°52' W 075°12'0 0.0
2017-Jan-19 17:32N 39°52' W 075°12'0 0.0
2017-Jan-19 16:33N 39°52' W 075°12'0 0.0
2017-Jan-19 15:33N 39°52' W 075°12'0 0.0
2017-Jan-19 14:32N 39°52' W 075°12'0 0.0
2017-Jan-19 13:30N 39°52' W 075°12'0 0.2
2017-Jan-19 12:33N 39°52' W 075°12'0 0.0
2017-Jan-19 11:31N 39°52' W 075°12'0 0.0
2017-Jan-19 10:32N 39°52' W 075°12'0 0.0
2017-Jan-19 09:32N 39°52' W 075°12'0 0.0
2017-Jan-19 08:33N 39°52' W 075°12'0 0.0
2017-Jan-19 07:34N 39°52' W 075°12'0 0.0
2017-Jan-19 06:28N 39°52' W 075°12'0 0.2
2017-Jan-19 05:32N 39°52' W 075°12'0 0.0
2017-Jan-19 04:33N 39°52' W 075°12'0 0.0
2017-Jan-19 03:33N 39°52' W 075°12'0 0.0
2017-Jan-19 02:31N 39°52' W 075°12'0 0.0
2017-Jan-19 01:32N 39°52' W 075°12'0 0.0
2017-Jan-19 00:32N 39°52' W 075°12'0 0.2
2017-Jan-18 23:33N 39°52' W 075°12'0 0.0
2017-Jan-18 22:34N 39°52' W 075°12'0 0.0
2017-Jan-18 21:31N 39°52' W 075°12'0 0.0
2017-Jan-18 20:32N 39°52' W 075°12'0 0.0
2017-Jan-18 19:33N 39°52' W 075°12'0 0.0
2017-Jan-18 18:33N 39°52' W 075°12'0 0.2
2017-Jan-18 17:31N 39°52' W 075°12'0 0.0
2017-Jan-18 16:32N 39°52' W 075°12'0 0.0
2017-Jan-18 15:34N 39°52' W 075°12'0 0.0
2017-Jan-18 14:33N 39°52' W 075°12'1 0.9
2017-Jan-18 13:33N 39°53' W 075°12'1 0.9
2017-Jan-18 12:32N 39°52' W 075°12'0 0.2
2017-Jan-18 11:33N 39°52' W 075°12'0 0.0
2017-Jan-18 10:34N 39°52' W 075°12'0 0.0
2017-Jan-18 09:31N 39°52' W 075°12'0 0.0
2017-Jan-18 08:32N 39°52' W 075°12'0 0.0
2017-Jan-18 07:33N 39°52' W 075°12'0 0.0
2017-Jan-18 06:33N 39°52' W 075°12'0 0.2
2017-Jan-18 05:31N 39°52' W 075°12'0 0.0
2017-Jan-18 04:32N 39°52' W 075°12'0 0.0
2017-Jan-18 03:32N 39°52' W 075°12'0 0.0
2017-Jan-18 02:33N 39°52' W 075°12'0 0.0
2017-Jan-18 01:31N 39°52' W 075°12'0 0.0
2017-Jan-18 00:31N 39°52' W 075°12'0 0.0
2017-Jan-17 23:32N 39°52' W 075°12'5 5.1
2017-Jan-17 22:34N 39°51' W 075°19'5 4.7
2017-Jan-17 21:34N 39°49' W 075°24'0 0.0
2017-Jan-17 20:34N 39°49' W 075°24'0 0.0
2017-Jan-17 19:34N 39°49' W 075°24'0 0.0
2017-Jan-17 18:34N 39°49' W 075°24'0 0.4
2017-Jan-17 17:34N 39°48' W 075°24'3 2.6
2017-Jan-17 16:34N 39°50' W 075°22'8 8.4
2017-Jan-17 15:33N 39°54' W 075°12'1 1.3
2017-Jan-17 14:32N 39°55' W 075°13'0 0.0
2017-Jan-17 13:33N 39°55' W 075°13'0 0.0
2017-Jan-17 12:34N 39°55' W 075°13'0 0.0
2017-Jan-17 11:31N 39°55' W 075°13'0 0.0
2017-Jan-17 10:32N 39°55' W 075°13'1 1.2
2017-Jan-17 09:33N 39°54' W 075°12'4 4.1
2017-Jan-17 08:33N 39°51' W 075°16'6 6.0
2017-Jan-17 07:33N 39°49' W 075°24'0 0.0
2017-Jan-17 06:33N 39°49' W 075°23'1 0.6
2017-Jan-17 05:33N 39°49' W 075°24'6 5.7
2017-Jan-17 04:33N 39°51' W 075°17'5 4.6
2017-Jan-17 03:33N 39°54' W 075°12'0 0.1
2017-Jan-17 02:07N 39°54' W 075°12'0 0.0
2017-Jan-17 01:16N 39°54' W 075°12'2 2.7
2017-Jan-17 00:34N 39°52' W 075°13'7 6.8
2017-Jan-16 23:33N 39°50' W 075°22'2 1.6
2017-Jan-16 22:33N 39°49' W 075°23'3 3.0
2017-Jan-16 21:33N 39°51' W 075°21'0 0.3
2017-Jan-16 20:33N 39°51' W 075°20'7 6.9
2017-Jan-16 19:33N 39°54' W 075°12'0 0.5
2017-Jan-16 18:33N 39°54' W 075°12'0 0.1
2017-Jan-16 17:33N 39°54' W 075°12'0 0.0
2017-Jan-16 16:31N 39°54' W 075°12'1 1.3
2017-Jan-16 15:33N 39°53' W 075°11'0 0.5
2017-Jan-16 14:33N 39°53' W 075°12'3 3.3
2017-Jan-16 13:33N 39°51' W 075°15'4 4.1
2017-Jan-16 12:33N 39°51' W 075°21'5 5.3
2017-Jan-16 11:33N 39°51' W 075°14'0 0.0
2017-Jan-16 10:33N 39°51' W 075°14'0 0.1
2017-Jan-16 09:33N 39°51' W 075°14'0 0.0
2017-Jan-16 08:33N 39°51' W 075°14'0 0.0
2017-Jan-16 07:33N 39°51' W 075°14'0 0.0
2017-Jan-16 06:33N 39°51' W 075°14'0 0.0
2017-Jan-16 05:33N 39°51' W 075°14'0 0.1
2017-Jan-16 04:33N 39°51' W 075°14'0 0.1
2017-Jan-16 03:33N 39°51' W 075°14'6 6.2
2017-Jan-16 02:33N 39°56' W 075°08'1 0.7
2017-Jan-16 01:33N 39°57' W 075°08'0 0.0
2017-Jan-16 00:33N 39°57' W 075°08'0 0.0
2017-Jan-15 23:33N 39°57' W 075°08'3 2.6
2017-Jan-15 22:33N 39°54' W 075°08'0 0.4
2017-Jan-15 21:31N 39°54' W 075°08'4 4.1
2017-Jan-15 20:33N 39°52' W 075°13'2 1.7
2017-Jan-15 19:31N 39°53' W 075°12'0 0.0
2017-Jan-15 18:32N 39°53' W 075°12'0 0.0
2017-Jan-15 17:33N 39°53' W 075°12'3 2.7
2017-Jan-15 16:33N 39°54' W 075°08'3 3.1
2017-Jan-15 15:31N 39°54' W 075°12'0 0.0
2017-Jan-15 14:31N 39°54' W 075°12'3 3.4
2017-Jan-15 13:33N 39°54' W 075°08'3 2.9
2017-Jan-15 12:34N 39°53' W 075°12'1 0.8
2017-Jan-15 11:31N 39°54' W 075°12'0 0.0
2017-Jan-15 10:32N 39°54' W 075°12'0 0.0
2017-Jan-15 09:33N 39°54' W 075°12'0 0.0
2017-Jan-15 08:33N 39°54' W 075°12'0 0.0
2017-Jan-15 07:31N 39°54' W 075°12'0 0.0
2017-Jan-15 06:29N 39°54' W 075°12'0 0.0
2017-Jan-15 05:32N 39°54' W 075°12'0 0.0
2017-Jan-15 04:30N 39°54' W 075°12'0 0.0
2017-Jan-15 03:31N 39°54' W 075°12'0 0.0
2017-Jan-15 02:31N 39°54' W 075°12'0 0.0
2017-Jan-15 01:32N 39°54' W 075°12'0 0.0
2017-Jan-15 00:33N 39°54' W 075°12'0 0.0
2017-Jan-14 23:33N 39°54' W 075°12'0 0.0
2017-Jan-14 22:33N 39°54' W 075°12'2 2.1
2017-Jan-14 21:33N 39°52' W 075°14'2 2.1
2017-Jan-14 20:32N 39°54' W 075°12'0 0.0
2017-Jan-14 19:32N 39°54' W 075°12'0 0.0
2017-Jan-14 18:33N 39°54' W 075°12'0 0.0
2017-Jan-14 17:34N 39°54' W 075°12'0 0.3
2017-Jan-14 16:33N 39°54' W 075°12'1 0.6
2017-Jan-14 15:33N 39°53' W 075°12'1 0.8
2017-Jan-14 14:32N 39°54' W 075°12'0 0.0
2017-Jan-14 13:33N 39°54' W 075°12'0 0.0
2017-Jan-14 12:31N 39°54' W 075°12'0 0.0
2017-Jan-14 11:32N 39°54' W 075°12'0 0.0
2017-Jan-14 10:32N 39°54' W 075°12'0 0.0
2017-Jan-14 09:33N 39°54' W 075°12'0 0.0
2017-Jan-14 08:34N 39°54' W 075°12'0 0.0
2017-Jan-14 07:28N 39°54' W 075°12'0 0.0
2017-Jan-14 06:32N 39°54' W 075°12'0 0.0
2017-Jan-14 05:33N 39°54' W 075°12'0 0.0
2017-Jan-14 04:33N 39°54' W 075°12'0 0.0
2017-Jan-14 03:31N 39°54' W 075°12'1 0.2
2017-Jan-13 23:34N 39°54' W 075°12'2 1.4
2017-Jan-13 22:29N 39°55' W 075°13'0 0.0
2017-Jan-13 21:31N 39°55' W 075°13'0 0.0
2017-Jan-13 20:31N 39°55' W 075°13'0 0.0
2017-Jan-13 19:32N 39°55' W 075°13'0 0.0
2017-Jan-13 18:33N 39°55' W 075°13'0 0.0
2017-Jan-13 17:33N 39°55' W 075°13'0 0.0
2017-Jan-13 16:31N 39°55' W 075°13'0 0.0
2017-Jan-13 15:32N 39°55' W 075°13'2 1.6
2017-Jan-13 14:33N 39°54' W 075°12'1 0.7
2017-Jan-13 13:33N 39°54' W 075°12'0 0.0
2017-Jan-13 12:31N 39°54' W 075°12'0 0.0
2017-Jan-13 11:32N 39°54' W 075°12'0 0.0
2017-Jan-13 10:32N 39°54' W 075°12'0 0.0
2017-Jan-13 09:33N 39°54' W 075°12'0 0.0
2017-Jan-13 08:31N 39°54' W 075°12'0 0.0
2017-Jan-13 07:31N 39°54' W 075°12'0 0.0
2017-Jan-13 06:32N 39°54' W 075°12'0 0.0
2017-Jan-13 05:33N 39°54' W 075°12'0 0.0
2017-Jan-13 04:33N 39°54' W 075°12'0 0.0
2017-Jan-13 03:31N 39°54' W 075°12'0 0.0
2017-Jan-13 02:32N 39°54' W 075°12'0 0.0
2017-Jan-13 01:32N 39°54' W 075°12'0 0.0
2017-Jan-13 00:33N 39°54' W 075°12'0 0.0
2017-Jan-12 23:32N 39°54' W 075°12'0 0.0
2017-Jan-12 22:33N 39°54' W 075°12'1 0.7
2017-Jan-12 21:33N 39°53' W 075°12'1 0.7
2017-Jan-12 20:31N 39°54' W 075°12'0 0.0
2017-Jan-12 19:31N 39°54' W 075°12'0 0.0
2017-Jan-12 18:32N 39°54' W 075°12'0 0.0
2017-Jan-12 17:33N 39°54' W 075°12'0 0.4
2017-Jan-12 16:32N 39°54' W 075°12'0 0.4
2017-Jan-12 15:33N 39°54' W 075°12'0 0.0
2017-Jan-12 14:33N 39°54' W 075°12'0 0.0
2017-Jan-12 13:31N 39°54' W 075°12'2 2.1
2017-Jan-12 12:33N 39°52' W 075°14'7 7.3
2017-Jan-12 11:33N 39°50' W 075°23'6 6.0
2017-Jan-12 10:33N 39°46' W 075°29'3 3.3
2017-Jan-12 09:33N 39°43' W 075°31'0 0.0
2017-Jan-12 08:31N 39°43' W 075°31'0 0.0
2017-Jan-12 07:32N 39°43' W 075°31'0 0.0
2017-Jan-12 06:32N 39°43' W 075°31'0 0.0
2017-Jan-12 05:33N 39°43' W 075°31'0 0.0
2017-Jan-12 04:34N 39°43' W 075°31'1 1.4
2017-Jan-12 03:33N 39°44' W 075°30'8 8.2
2017-Jan-12 02:34N 39°50' W 075°22'8 7.5
2017-Jan-12 01:34N 39°52' W 075°13'8 7.8
2017-Jan-12 00:34N 39°58' W 075°07'2 1.9
2017-Jan-11 23:32N 39°59' W 075°04'0 0.0
2017-Jan-11 22:33N 39°59' W 075°04'0 0.0
2017-Jan-11 21:31N 39°59' W 075°04'4 4.7
2017-Jan-11 20:34N 39°55' W 075°08'4 3.6
2017-Jan-11 19:32N 39°54' W 075°12'0 0.1
2017-Jan-11 18:33N 39°54' W 075°12'0 0.0
2017-Jan-11 17:31N 39°54' W 075°12'0 0.0
2017-Jan-11 16:32N 39°54' W 075°12'0 0.0
2017-Jan-11 15:32N 39°54' W 075°12'0 0.0
2017-Jan-11 14:33N 39°54' W 075°12'0 0.0
2017-Jan-11 13:31N 39°54' W 075°12'2 2.4
2017-Jan-11 12:34N 39°53' W 075°10'0 0.2
2017-Jan-11 11:34N 39°53' W 075°09'2 2.1
2017-Jan-11 10:33N 39°54' W 075°12'0 0.3
2017-Jan-11 09:32N 39°54' W 075°12'0 0.0
2017-Jan-11 08:33N 39°54' W 075°12'0 0.0
2017-Jan-11 07:31N 39°54' W 075°12'0 0.0
2017-Jan-11 06:34N 39°54' W 075°12'1 0.6
2017-Jan-11 05:33N 39°53' W 075°12'8 7.9
2017-Jan-11 04:34N 39°50' W 075°21'0 0.5
2017-Jan-11 03:31N 39°50' W 075°22'0 0.0
2017-Jan-11 02:32N 39°50' W 075°22'0 0.2
2017-Jan-11 01:28N 39°50' W 075°22'0 0.0
2017-Jan-11 00:33N 39°50' W 075°22'6 6.1
2017-Jan-10 23:33N 39°52' W 075°14'5 4.6
2017-Jan-10 22:33N 39°53' W 075°08'6 6.0
2017-Jan-10 21:31N 39°59' W 075°04'6 6.2
2017-Jan-10 20:34N 39°54' W 075°08'  

Dump ship's entire track history